createdAt,value
2022-08-20T00:00:39.546Z,11.35
2022-08-20T00:03:13.843Z,11.87
2022-08-20T00:05:43.614Z,11.13
2022-08-20T00:08:10.029Z,12.43
2022-08-20T00:10:39.007Z,11.65
2022-08-20T00:13:08.626Z,13.00
2022-08-20T00:15:39.356Z,12.98
2022-08-20T00:18:06.805Z,11.50
2022-08-20T00:20:37.960Z,10.68
2022-08-20T00:23:10.210Z,10.52
2022-08-20T00:25:39.770Z,11.55
2022-08-20T00:28:06.442Z,10.75
2022-08-20T00:30:35.494Z,9.77
2022-08-20T00:33:05.567Z,10.57
2022-08-20T00:35:35.364Z,10.20
2022-08-20T00:38:02.024Z,10.60
2022-08-20T00:40:34.339Z,9.35
2022-08-20T00:43:02.435Z,8.80
2022-08-20T00:45:31.496Z,11.15
2022-08-20T00:47:58.508Z,10.20
2022-08-20T00:50:37.039Z,9.32
2022-08-20T00:53:09.391Z,10.50
2022-08-20T00:55:36.254Z,9.82
2022-08-20T00:58:09.192Z,11.13
2022-08-20T01:00:45.323Z,12.13
2022-08-20T01:03:14.317Z,14.55
2022-08-20T01:05:44.789Z,13.18
2022-08-20T01:08:11.833Z,12.73
2022-08-20T01:10:41.003Z,10.93
2022-08-20T01:13:10.486Z,12.88
2022-08-20T01:15:43.325Z,11.25
2022-08-20T01:18:13.044Z,11.48
2022-08-20T01:21:00.453Z,12.90
2022-08-20T01:23:53.591Z,13.90
2022-08-20T01:26:24.662Z,14.65
2022-08-20T01:28:54.848Z,12.27
2022-08-20T01:31:27.513Z,12.77
2022-08-20T01:33:56.360Z,13.05
2022-08-20T01:36:44.213Z,11.90
2022-08-20T01:39:15.447Z,11.88
2022-08-20T01:42:04.062Z,11.32
2022-08-20T01:44:32.121Z,12.38
2022-08-20T01:47:12.539Z,12.32
2022-08-20T01:49:45.896Z,11.10
2022-08-20T01:52:26.518Z,11.00
2022-08-20T01:54:52.892Z,9.88
2022-08-20T01:57:22.989Z,9.60
2022-08-20T01:59:50.137Z,9.60
2022-08-20T02:02:16.581Z,8.40
2022-08-20T02:04:43.038Z,8.75
2022-08-20T02:07:18.916Z,8.82
2022-08-20T02:09:46.033Z,8.63
2022-08-20T02:12:13.644Z,7.90
2022-08-20T02:14:50.514Z,8.52
2022-08-20T02:17:18.371Z,6.93
2022-08-20T02:19:55.367Z,7.38
2022-08-20T02:22:38.793Z,7.40
2022-08-20T02:25:08.271Z,7.18
2022-08-20T02:27:36.285Z,7.05
2022-08-20T02:30:10.348Z,6.40
2022-08-20T02:32:46.294Z,6.97
2022-08-20T02:35:12.960Z,7.25
2022-08-20T02:37:41.268Z,6.70
2022-08-20T02:40:11.562Z,6.80
2022-08-20T02:42:41.280Z,6.85
2022-08-20T02:45:10.841Z,6.50
2022-08-20T02:47:44.785Z,6.75
2022-08-20T02:50:15.075Z,6.10
2022-08-20T02:52:42.201Z,6.18
2022-08-20T02:55:25.309Z,6.07
2022-08-20T02:57:58.452Z,6.28
2022-08-20T03:00:26.713Z,6.22
2022-08-20T03:02:53.109Z,6.03
2022-08-20T03:05:19.393Z,5.65
2022-08-20T03:07:48.765Z,6.53
2022-08-20T03:10:15.365Z,5.38
2022-08-20T03:12:41.737Z,5.82
2022-08-20T03:15:17.746Z,5.28
2022-08-20T03:17:44.799Z,6.70
2022-08-20T03:20:12.197Z,6.30
2022-08-20T03:22:39.827Z,6.57
2022-08-20T03:25:10.104Z,6.30
2022-08-20T03:27:36.762Z,6.40
2022-08-20T03:30:05.724Z,5.97
2022-08-20T03:32:32.017Z,6.28
2022-08-20T03:34:58.137Z,5.95
2022-08-20T03:37:24.671Z,6.47
2022-08-20T03:39:51.920Z,6.63
2022-08-20T03:42:18.129Z,7.53
2022-08-20T03:44:44.260Z,6.35
2022-08-20T03:47:10.443Z,6.65
2022-08-20T03:49:36.747Z,6.35
2022-08-20T03:52:04.635Z,6.57
2022-08-20T03:54:32.020Z,6.25
2022-08-20T03:56:58.997Z,6.68
2022-08-20T03:59:25.185Z,7.88
2022-08-20T04:01:51.974Z,7.05
2022-08-20T04:04:18.816Z,6.93
2022-08-20T04:06:46.452Z,6.65
2022-08-20T04:09:13.618Z,7.20
2022-08-20T04:11:41.045Z,6.88
2022-08-20T04:14:09.208Z,6.78
2022-08-20T04:16:37.412Z,6.78
2022-08-20T04:19:04.495Z,6.70
2022-08-20T04:21:32.877Z,6.95
2022-08-20T04:24:01.573Z,5.55
2022-08-20T04:26:27.971Z,6.47
2022-08-20T04:28:55.001Z,6.03
2022-08-20T04:31:25.195Z,7.20
2022-08-20T04:33:51.779Z,7.03
2022-08-20T04:36:19.466Z,7.22
2022-08-20T04:38:50.494Z,7.45
2022-08-20T04:41:22.743Z,7.25
2022-08-20T04:43:54.794Z,6.88
2022-08-20T04:46:23.212Z,7.28
2022-08-20T04:48:50.407Z,6.88
2022-08-20T04:51:24.305Z,7.22
2022-08-20T04:53:53.794Z,7.03
2022-08-20T04:56:26.361Z,6.85
2022-08-20T04:58:54.765Z,6.53
2022-08-20T05:01:23.130Z,6.38
2022-08-20T05:03:56.256Z,6.15
2022-08-20T05:06:26.817Z,6.28
2022-08-20T05:08:54.197Z,6.97
2022-08-20T05:11:34.081Z,6.82
2022-08-20T05:14:04.726Z,7.00
2022-08-20T05:16:36.970Z,6.40
2022-08-20T05:19:03.466Z,6.13
2022-08-20T05:21:29.595Z,6.45
2022-08-20T05:23:55.749Z,6.55
2022-08-20T05:26:25.542Z,7.28
2022-08-20T05:28:58.372Z,6.00
2022-08-20T05:31:33.290Z,6.72
2022-08-20T05:34:08.978Z,6.45
2022-08-20T05:36:36.140Z,6.40
2022-08-20T05:39:02.765Z,6.45
2022-08-20T05:41:30.589Z,5.97
2022-08-20T05:44:00.722Z,6.53
2022-08-20T05:46:27.505Z,5.97
2022-08-20T05:48:53.588Z,5.40
2022-08-20T05:51:19.712Z,6.18
2022-08-20T05:53:45.816Z,5.53
2022-08-20T05:56:11.884Z,5.45
2022-08-20T05:58:38.574Z,5.07
2022-08-20T06:01:05.101Z,4.75
2022-08-20T06:03:49.749Z,3.88
2022-08-20T06:06:32.204Z,4.30
2022-08-20T06:09:02.231Z,3.80
2022-08-20T06:11:28.813Z,4.10
2022-08-20T06:13:55.270Z,3.35
2022-08-20T06:16:21.411Z,3.30
2022-08-20T06:18:48.253Z,3.20
2022-08-20T06:21:14.947Z,4.25
2022-08-20T06:23:54.109Z,3.13
2022-08-20T06:26:30.038Z,2.95
2022-08-20T06:28:58.477Z,2.63
2022-08-20T06:31:24.671Z,2.90
2022-08-20T06:33:51.114Z,3.00
2022-08-20T06:36:18.893Z,2.90
2022-08-20T06:38:45.911Z,2.85
2022-08-20T06:41:12.046Z,2.75
2022-08-20T06:43:39.775Z,2.80
2022-08-20T06:46:06.224Z,2.42
2022-08-20T06:48:32.371Z,2.83
2022-08-20T06:50:58.602Z,2.40
2022-08-20T06:53:24.872Z,2.50
2022-08-20T06:56:00.283Z,2.45
2022-08-20T06:58:36.333Z,3.13
2022-08-20T07:01:09.584Z,2.42
2022-08-20T07:03:38.041Z,1.98
2022-08-20T07:06:04.821Z,2.80
2022-08-20T07:08:31.001Z,2.42
2022-08-20T07:10:57.422Z,2.30
2022-08-20T07:13:23.784Z,2.05
2022-08-20T07:15:53.102Z,2.30
2022-08-20T07:18:28.496Z,1.95
2022-08-20T07:20:56.198Z,2.22
2022-08-20T07:23:23.343Z,2.40
2022-08-20T07:25:49.876Z,2.67
2022-08-20T07:28:19.414Z,2.58
2022-08-20T07:31:13.731Z,2.25
2022-08-20T07:33:42.583Z,1.80
2022-08-20T07:36:14.458Z,2.67
2022-08-20T07:38:41.035Z,2.28
2022-08-20T07:41:12.969Z,2.00
2022-08-20T07:43:40.689Z,2.22
2022-08-20T07:46:08.668Z,2.03
2022-08-20T07:48:39.179Z,2.03
2022-08-20T07:51:07.898Z,2.25
2022-08-20T07:53:38.324Z,2.13
2022-08-20T07:56:11.362Z,2.10
2022-08-20T07:58:41.985Z,2.00
2022-08-20T08:01:10.295Z,1.80
2022-08-20T08:03:49.310Z,1.95
2022-08-20T08:06:29.966Z,2.40
2022-08-20T08:09:10.497Z,2.28
2022-08-20T08:11:46.985Z,1.95
2022-08-20T08:14:16.262Z,2.17
2022-08-20T08:16:47.549Z,2.10
2022-08-20T08:19:17.164Z,1.70
2022-08-20T08:21:44.758Z,2.28
2022-08-20T08:24:12.717Z,2.17
2022-08-20T08:26:41.244Z,2.10
2022-08-20T08:29:08.921Z,2.17
2022-08-20T08:31:35.691Z,2.50
2022-08-20T08:34:02.114Z,1.88
2022-08-20T08:36:38.594Z,2.80
2022-08-20T08:39:05.154Z,2.33
2022-08-20T08:41:56.666Z,2.35
2022-08-20T08:44:27.193Z,2.22
2022-08-20T08:47:18.467Z,1.98
2022-08-20T08:49:47.228Z,1.80
2022-08-20T08:52:31.006Z,1.90
2022-08-20T08:55:03.920Z,2.15
2022-08-20T08:57:31.521Z,1.88
2022-08-20T09:00:11.338Z,1.92
2022-08-20T09:02:38.542Z,1.80
2022-08-20T09:05:15.412Z,1.60
2022-08-20T09:07:45.138Z,1.73
2022-08-20T09:10:11.534Z,2.00
2022-08-20T09:12:37.993Z,1.65
2022-08-20T09:15:05.085Z,1.70
2022-08-20T09:17:31.304Z,2.15
2022-08-20T09:19:57.571Z,1.42
2022-08-20T09:22:25.283Z,2.08
2022-08-20T09:24:51.924Z,1.52
2022-08-20T09:27:18.318Z,1.55
2022-08-20T09:29:45.189Z,2.00
2022-08-20T09:32:18.280Z,2.28
2022-08-20T09:34:47.339Z,1.77
2022-08-20T09:37:14.820Z,2.42
2022-08-20T09:39:42.307Z,2.20
2022-08-20T09:42:17.721Z,3.33
2022-08-20T09:44:44.650Z,1.60
2022-08-20T09:47:11.929Z,1.85
2022-08-20T09:49:39.142Z,2.05
2022-08-20T09:52:22.557Z,2.60
2022-08-20T09:54:50.226Z,1.75
2022-08-20T09:57:17.297Z,2.25
2022-08-20T09:59:44.690Z,1.50
2022-08-20T10:02:11.049Z,2.00
2022-08-20T10:04:37.343Z,1.70
2022-08-20T10:07:08.406Z,1.92
2022-08-20T10:09:37.853Z,1.90
2022-08-20T10:12:07.567Z,2.30
2022-08-20T10:14:34.061Z,2.08
2022-08-20T10:17:01.969Z,1.60
2022-08-20T10:19:29.599Z,2.08
2022-08-20T10:21:56.426Z,2.25
2022-08-20T10:24:23.368Z,2.47
2022-08-20T10:26:52.139Z,2.50
2022-08-20T10:29:18.205Z,2.38
2022-08-20T10:31:44.357Z,2.20
2022-08-20T10:34:10.637Z,2.80
2022-08-20T10:36:37.082Z,1.92
2022-08-20T10:39:03.356Z,2.38
2022-08-20T10:41:29.591Z,2.22
2022-08-20T10:43:55.981Z,2.40
2022-08-20T10:46:22.318Z,2.15
2022-08-20T10:48:49.411Z,2.50
2022-08-20T10:51:15.624Z,1.80
2022-08-20T10:53:42.322Z,2.75
2022-08-20T10:56:10.876Z,1.98
2022-08-20T10:58:40.129Z,2.10
2022-08-20T11:01:08.315Z,1.65
2022-08-20T11:03:34.844Z,1.67
2022-08-20T11:06:01.671Z,2.47
2022-08-20T11:08:34.352Z,2.17
2022-08-20T11:11:03.057Z,2.05
2022-08-20T11:13:29.153Z,1.98
2022-08-20T11:15:55.614Z,2.15
2022-08-20T11:18:21.820Z,1.92
2022-08-20T11:20:48.234Z,2.75
2022-08-20T11:23:16.644Z,1.65
2022-08-20T11:25:42.823Z,2.70
2022-08-20T11:28:09.266Z,1.90
2022-08-20T11:30:37.146Z,1.45
2022-08-20T11:33:03.924Z,1.95
2022-08-20T11:35:48.687Z,2.30
2022-08-20T11:38:16.774Z,1.63
2022-08-20T11:40:42.997Z,2.90
2022-08-20T11:43:14.575Z,2.45
2022-08-20T11:45:43.525Z,2.03
2022-08-20T11:48:12.624Z,2.20
2022-08-20T11:50:39.067Z,2.50
2022-08-20T11:53:05.626Z,1.63
2022-08-20T11:55:34.693Z,1.90
2022-08-20T11:58:01.864Z,1.90
2022-08-20T12:00:32.619Z,2.35
2022-08-20T12:03:01.209Z,2.00
2022-08-20T12:05:28.866Z,4.60
2022-08-20T12:07:54.982Z,2.00
2022-08-20T12:10:23.983Z,2.33
2022-08-20T12:12:50.222Z,2.10
2022-08-20T12:15:16.563Z,2.28
2022-08-20T12:17:43.098Z,1.85
2022-08-20T12:20:12.429Z,4.72
2022-08-20T12:22:38.596Z,2.20
2022-08-20T12:25:08.630Z,2.13
2022-08-20T12:27:36.248Z,2.38
2022-08-20T12:30:07.555Z,2.00
2022-08-20T12:32:34.938Z,2.33
2022-08-20T12:35:02.620Z,1.90
2022-08-20T12:37:30.987Z,2.10
2022-08-20T12:40:00.240Z,1.92
2022-08-20T12:42:30.158Z,2.15
2022-08-20T12:44:58.384Z,1.88
2022-08-20T12:47:31.285Z,2.13
2022-08-20T12:50:05.048Z,2.30
2022-08-20T12:52:31.506Z,2.20
2022-08-20T12:54:59.432Z,2.28
2022-08-20T13:00:15.293Z,2.38
2022-08-20T13:02:42.064Z,2.53
2022-08-20T13:05:10.355Z,2.33
2022-08-20T13:07:38.790Z,1.85
2022-08-20T13:10:07.144Z,2.05
2022-08-20T13:12:33.917Z,2.20
2022-08-20T13:15:00.172Z,2.13
2022-08-20T13:17:38.209Z,1.95
2022-08-20T13:20:08.467Z,2.25
2022-08-20T13:22:34.657Z,3.10
2022-08-20T13:25:00.753Z,2.20
2022-08-20T13:27:27.109Z,2.42
2022-08-20T13:29:58.389Z,2.45
2022-08-20T13:32:25.562Z,2.80
2022-08-20T13:34:51.770Z,2.17
2022-08-20T13:37:25.319Z,2.63
2022-08-20T13:39:53.029Z,2.13
2022-08-20T13:42:19.700Z,2.50
2022-08-20T13:44:47.250Z,2.15
2022-08-20T13:47:14.902Z,2.30
2022-08-20T13:49:41.285Z,2.42
2022-08-20T13:52:07.745Z,2.35
2022-08-20T13:54:35.233Z,2.28
2022-08-20T13:57:06.469Z,2.35
2022-08-20T13:59:39.227Z,2.55
2022-08-20T14:02:07.669Z,2.10
2022-08-20T14:04:34.253Z,2.70
2022-08-20T14:07:11.353Z,2.70
2022-08-20T14:09:39.485Z,2.00
2022-08-20T14:12:10.883Z,1.70
2022-08-20T14:14:37.577Z,1.67
2022-08-20T14:17:34.538Z,2.10
2022-08-20T14:20:08.057Z,2.20
2022-08-20T14:22:36.621Z,2.10
2022-08-20T14:25:05.528Z,2.45
2022-08-20T14:27:33.292Z,2.78
2022-08-20T14:30:00.899Z,3.92
2022-08-20T14:32:27.527Z,2.25
2022-08-20T14:34:55.910Z,2.85
2022-08-20T14:37:27.368Z,1.95
2022-08-20T14:39:56.757Z,1.92
2022-08-20T14:42:26.291Z,2.88
2022-08-20T14:44:53.611Z,2.63
2022-08-20T14:47:24.334Z,2.20
2022-08-20T14:49:52.394Z,2.28
2022-08-20T14:52:20.162Z,2.78
2022-08-20T14:54:49.094Z,2.90
2022-08-20T14:57:16.261Z,2.45
2022-08-20T14:59:42.766Z,2.10
2022-08-20T15:02:11.831Z,2.45
2022-08-20T15:04:39.384Z,2.38
2022-08-20T15:07:13.663Z,2.30
2022-08-20T15:09:42.575Z,2.10
2022-08-20T15:12:09.030Z,2.15
2022-08-20T15:14:35.385Z,2.63
2022-08-20T15:17:05.772Z,2.25
2022-08-20T15:19:32.023Z,2.38
2022-08-20T15:21:58.133Z,2.20
2022-08-20T15:24:24.316Z,1.60
2022-08-20T15:26:50.466Z,2.00
2022-08-20T15:29:18.161Z,1.73
2022-08-20T15:31:49.940Z,1.88
2022-08-20T15:34:17.766Z,1.63
2022-08-20T15:36:44.761Z,1.63
2022-08-20T15:39:16.914Z,2.10
2022-08-20T15:41:43.239Z,1.80
2022-08-20T15:44:09.700Z,2.50
2022-08-20T15:46:37.548Z,2.00
2022-08-20T15:49:10.735Z,1.58
2022-08-20T15:51:44.649Z,1.58
2022-08-20T15:54:22.331Z,2.20
2022-08-20T15:57:20.018Z,1.73
2022-08-20T16:00:14.117Z,1.90
2022-08-20T16:03:13.199Z,1.58
2022-08-20T16:05:55.749Z,2.20
2022-08-20T16:09:14.820Z,2.00
2022-08-20T16:11:54.393Z,2.25
2022-08-20T16:14:30.412Z,1.92
2022-08-20T16:17:04.553Z,2.50
2022-08-20T16:19:50.808Z,2.13
2022-08-20T16:22:19.077Z,2.05
2022-08-20T16:24:45.675Z,2.10
2022-08-20T16:27:51.972Z,1.90
2022-08-20T16:30:37.872Z,1.40
2022-08-20T16:33:34.861Z,2.17
2022-08-20T16:36:42.020Z,1.77
2022-08-20T16:39:18.454Z,1.63
2022-08-20T16:41:47.013Z,2.63
2022-08-20T16:44:36.307Z,2.25
2022-08-20T16:47:23.813Z,2.65
2022-08-20T16:50:33.135Z,2.10
2022-08-20T16:52:59.513Z,2.15
2022-08-20T16:55:25.915Z,2.00
2022-08-20T16:57:53.687Z,1.70
2022-08-20T17:00:44.928Z,3.17
2022-08-20T17:03:33.604Z,2.13
2022-08-20T17:06:27.245Z,2.55
2022-08-20T17:08:55.111Z,2.28
2022-08-20T17:11:31.519Z,2.30
2022-08-20T17:14:08.797Z,1.67
2022-08-20T17:16:39.594Z,1.90
2022-08-20T17:21:38.170Z,2.00
2022-08-20T17:24:19.675Z,1.65
2022-08-20T17:27:00.079Z,1.90
2022-08-20T17:29:31.077Z,2.08
2022-08-20T17:32:29.539Z,2.05
2022-08-20T17:35:00.340Z,2.20
2022-08-20T17:37:34.546Z,2.20
2022-08-20T17:40:25.995Z,2.22
2022-08-20T17:42:57.739Z,1.95
2022-08-20T17:45:46.830Z,1.58
2022-08-20T17:48:38.521Z,1.73
2022-08-20T17:51:14.585Z,1.48
2022-08-20T17:53:43.317Z,1.38
2022-08-20T17:56:19.188Z,1.40
2022-08-20T17:59:05.666Z,2.03
2022-08-20T18:01:32.883Z,1.75
2022-08-20T18:04:00.422Z,1.60
2022-08-20T18:06:43.074Z,2.10
2022-08-20T18:09:36.385Z,2.65
2022-08-20T18:12:35.709Z,2.00
2022-08-20T18:15:24.953Z,1.70
2022-08-20T18:18:20.958Z,2.08
2022-08-20T18:21:08.879Z,2.33
2022-08-20T18:23:47.790Z,1.80
2022-08-20T18:26:32.113Z,2.15
2022-08-20T18:29:02.104Z,2.70
2022-08-20T18:32:11.939Z,2.05
2022-08-20T18:34:40.773Z,2.00
2022-08-20T18:37:24.784Z,1.70
2022-08-20T18:39:52.013Z,1.80
2022-08-20T18:42:25.266Z,2.00
2022-08-20T18:44:55.108Z,2.33
2022-08-20T18:47:37.508Z,1.80
2022-08-20T18:50:15.664Z,1.90
2022-08-20T18:52:54.375Z,1.75
2022-08-20T18:55:59.406Z,1.85
2022-08-20T18:58:49.242Z,1.65
2022-08-20T19:01:16.580Z,2.28
2022-08-20T19:03:50.791Z,2.20
2022-08-20T19:07:04.120Z,2.10
2022-08-20T19:09:54.498Z,1.90
2022-08-20T19:12:29.885Z,2.10
2022-08-20T19:15:35.952Z,1.48
2022-08-20T19:18:29.810Z,1.70
2022-08-20T19:20:59.091Z,2.25
2022-08-20T19:23:28.662Z,1.63
2022-08-20T19:26:25.725Z,2.10
2022-08-20T19:28:59.821Z,2.25
2022-08-20T19:31:32.014Z,1.95
2022-08-20T19:34:28.015Z,2.03
2022-08-20T19:37:35.502Z,2.20
2022-08-20T19:39:57.584Z,2.33
2022-08-20T19:42:31.805Z,2.92
2022-08-20T19:45:08.443Z,2.55
2022-08-20T19:47:37.185Z,2.75
2022-08-20T19:50:38.562Z,2.47
2022-08-20T19:53:29.898Z,2.13
2022-08-20T19:56:19.697Z,2.25
2022-08-20T19:59:02.176Z,2.13
2022-08-20T20:01:29.155Z,2.13
2022-08-20T20:03:57.215Z,2.20
2022-08-20T20:06:25.297Z,2.03
2022-08-20T20:09:16.656Z,1.92
2022-08-20T20:11:51.455Z,2.00
2022-08-20T20:14:22.409Z,2.10
2022-08-20T20:16:50.791Z,2.28
2022-08-20T20:19:27.146Z,2.33
2022-08-20T20:22:19.909Z,2.50
2022-08-20T20:25:03.534Z,2.15
2022-08-20T20:27:32.217Z,1.90
2022-08-20T20:30:21.091Z,2.13
2022-08-20T20:32:50.378Z,2.15
2022-08-20T20:35:30.055Z,1.98
2022-08-20T20:38:09.393Z,2.05
2022-08-20T20:40:52.095Z,1.80
2022-08-20T20:43:41.602Z,2.17
2022-08-20T20:46:23.209Z,2.42
2022-08-20T20:49:00.522Z,2.25
2022-08-20T20:51:38.042Z,2.58
2022-08-20T20:54:20.425Z,3.47
2022-08-20T20:57:01.505Z,4.03
2022-08-20T20:59:28.288Z,4.18
2022-08-20T21:01:54.511Z,3.90
2022-08-20T21:04:22.643Z,4.32
2022-08-20T21:06:50.203Z,3.65
2022-08-20T21:09:16.866Z,3.83
2022-08-20T21:11:43.155Z,3.70
2022-08-20T21:14:09.283Z,2.67
2022-08-20T21:16:35.539Z,3.08
2022-08-20T21:19:05.192Z,3.00
2022-08-20T21:21:31.681Z,3.28
2022-08-20T21:23:58.210Z,3.30
2022-08-20T21:26:27.029Z,4.18
2022-08-20T21:28:53.443Z,3.50
2022-08-20T21:31:19.589Z,3.70
2022-08-20T21:33:45.674Z,4.18
2022-08-20T21:36:13.502Z,4.03
2022-08-20T21:38:39.660Z,3.88
2022-08-20T21:41:05.875Z,3.33
2022-08-20T21:43:32.911Z,3.95
2022-08-20T21:46:00.727Z,3.25
2022-08-20T21:48:27.036Z,3.22
2022-08-20T21:50:53.189Z,2.70
2022-08-20T21:53:19.306Z,2.78
2022-08-20T21:55:45.682Z,3.03
2022-08-20T21:58:12.046Z,2.53
2022-08-20T22:00:55.975Z,2.95
2022-08-20T22:03:31.423Z,2.85
2022-08-20T22:05:59.865Z,3.00
2022-08-20T22:08:28.478Z,2.90
2022-08-20T22:10:56.545Z,2.85
2022-08-20T22:13:24.005Z,2.60
2022-08-20T22:15:50.300Z,2.92
2022-08-20T22:18:17.346Z,2.92
2022-08-20T22:20:43.849Z,2.47
2022-08-20T22:23:11.033Z,2.88
2022-08-20T22:25:37.443Z,2.70
2022-08-20T22:28:04.208Z,2.88
2022-08-20T22:30:31.009Z,2.90
2022-08-20T22:33:03.891Z,2.72
2022-08-20T22:35:31.827Z,2.78
2022-08-20T22:37:58.658Z,2.85
2022-08-20T22:40:25.933Z,2.80
2022-08-20T22:42:52.260Z,3.35
2022-08-20T22:45:18.573Z,3.38
2022-08-20T22:47:45.363Z,2.78
2022-08-20T22:50:13.048Z,3.00
2022-08-20T22:52:41.846Z,2.65
2022-08-20T22:55:09.520Z,2.95
2022-08-20T22:57:37.007Z,3.58
2022-08-20T23:00:11.173Z,3.03
2022-08-20T23:02:38.656Z,3.17
2022-08-20T23:05:05.336Z,2.97
2022-08-20T23:07:31.778Z,3.28
2022-08-20T23:09:58.019Z,3.20
2022-08-20T23:12:24.156Z,2.90
2022-08-20T23:14:52.192Z,3.38
2022-08-20T23:17:19.150Z,4.32
2022-08-20T23:19:47.556Z,4.13
2022-08-20T23:22:14.212Z,4.13
2022-08-20T23:24:41.261Z,3.92
2022-08-20T23:27:09.696Z,3.58
2022-08-20T23:29:35.935Z,3.90
2022-08-20T23:32:02.337Z,3.90
2022-08-20T23:34:28.800Z,3.72
2022-08-20T23:36:56.075Z,4.03
2022-08-20T23:39:23.324Z,3.95
2022-08-20T23:41:49.853Z,4.20
2022-08-20T23:44:25.148Z,4.82
2022-08-20T23:46:57.532Z,4.75
2022-08-20T23:49:24.655Z,4.70
2022-08-20T23:51:50.834Z,4.78
2022-08-20T23:54:17.319Z,4.15
2022-08-20T23:56:43.444Z,4.05
2022-08-20T23:59:09.912Z,3.85
